Time;durP1;ratioP1;P1;durP2;ratioP2;P2;SDS_P1;SDS_P2;PMS_P1;PMS_P2;Temp;Humidity;BMP_temperature;BMP_pressure;BME280_temperature;BME280_humidity;BME280_pressure;Samples;Min_cycle;Max_cycle;Signal;HPM_P1;HPM_P2
2021/04/30 00:00:42;;;;;;;;;;;;;;;27.80;33.52;100674.00;5020233;28;744;-22
2021/04/30 00:03:08;;;;;;;;;;;;;;;27.95;33.69;100675.84;5019798;28;1019;-24
2021/04/30 00:05:33;;;;;;;;;;;;;;;27.98;33.43;100672.75;5020303;28;803;-23
2021/04/30 00:07:59;;;;;;;;;;;;;;;27.84;33.60;100663.66;5020437;28;816;-23
2021/04/30 00:10:24;;;;;;;;;;;;;;;27.93;33.56;100661.66;5020209;28;842;-23
2021/04/30 00:12:50;;;;;;;;;;;;;;;27.96;33.32;100659.44;5020073;28;1906;-22
2021/04/30 00:15:15;;;;;;;;;;;;;;;27.93;33.58;100658.97;5019938;28;796;-23
2021/04/30 00:17:40;;;;;;;;;;;;;;;28.00;33.26;100665.28;5019684;28;955;-31
2021/04/30 00:20:06;;;;;;;;;;;;;;;27.97;33.70;100657.56;5020026;28;848;-22
2021/04/30 00:22:31;;;;;;;;;;;;;;;27.91;33.86;100666.44;5020198;28;726;-34
2021/04/30 00:24:57;;;;;;;;;;;;;;;27.99;33.57;100671.75;5019473;28;1137;-23
2021/04/30 00:27:22;;;;;;;;;;;;;;;27.95;33.46;100665.88;5019431;28;777;-34
2021/04/30 00:29:47;;;;;;;;;;;;;;;27.94;33.75;100669.63;5020112;28;813;-22
2021/04/30 00:32:12;;;;;;;;;;;;;;;28.04;33.53;100669.31;5019294;28;1918;-25
2021/04/30 00:34:41;;;;;;;;;;;;;;;28.05;33.07;100668.25;5018193;28;1105;-23
2021/04/30 00:37:06;;;;;;;;;;;;;;;27.96;33.40;100670.25;5019793;28;828;-23
2021/04/30 00:39:31;;;;;;;;;;;;;;;28.07;33.20;100659.97;5019561;28;828;-34
2021/04/30 00:41:57;;;;;;;;;;;;;;;28.04;33.01;100663.91;5019749;28;744;-23
2021/04/30 00:44:22;;;;;;;;;;;;;;;27.97;33.19;100668.38;5020060;28;1021;-32
2021/04/30 00:46:47;;;;;;;;;;;;;;;28.04;33.08;100658.50;5019219;28;1003;-23
2021/04/30 00:49:13;;;;;;;;;;;;;;;28.08;32.99;100658.91;5019665;28;783;-24
2021/04/30 00:51:38;;;;;;;;;;;;;;;27.89;33.19;100658.53;5019403;28;1953;-23
2021/04/30 00:54:03;;;;;;;;;;;;;;;28.02;32.98;100651.59;5019398;28;771;-23
2021/04/30 00:56:29;;;;;;;;;;;;;;;28.04;32.78;100650.38;5019446;28;816;-22
2021/04/30 00:58:54;;;;;;;;;;;;;;;27.90;33.07;100660.19;5019415;28;759;-22
2021/04/30 01:01:19;;;;;;;;;;;;;;;27.95;33.00;100663.16;5034696;28;967;-22
2021/04/30 01:03:45;;;;;;;;;;;;;;;28.03;32.32;100653.28;5018755;28;1011;-22
2021/04/30 01:06:10;;;;;;;;;;;;;;;28.02;32.39;100663.25;5019287;28;787;-34
2021/04/30 01:08:36;;;;;;;;;;;;;;;27.94;32.98;100660.66;5018865;28;843;-34
2021/04/30 01:11:01;;;;;;;;;;;;;;;28.03;32.61;100664.09;5019161;28;1909;-34
2021/04/30 01:13:26;;;;;;;;;;;;;;;27.97;32.40;100655.72;5034592;28;813;-31
2021/04/30 01:15:52;;;;;;;;;;;;;;;27.94;32.87;100648.00;5019083;28;839;-23
2021/04/30 01:18:17;;;;;;;;;;;;;;;28.04;32.70;100649.53;5018518;28;1003;-23
2021/04/30 01:20:42;;;;;;;;;;;;;;;28.04;32.13;100657.63;5018964;28;890;-32
2021/04/30 01:23:07;;;;;;;;;;;;;;;27.84;32.38;100656.38;5018585;28;874;-22
2021/04/30 01:25:35;;;;;;;;;;;;;;;28.05;32.53;100653.91;5018592;28;1089;-24
2021/04/30 01:28:01;;;;;;;;;;;;;;;28.00;32.57;100651.78;5018533;28;807;-34
2021/04/30 01:30:27;;;;;;;;;;;;;;;27.84;32.79;100655.56;5018690;28;823;-34
2021/04/30 01:32:53;;;;;;;;;;;;;;;28.04;32.33;100646.81;5016558;28;1910;-23
2021/04/30 01:35:19;;;;;;;;;;;;;;;27.99;31.93;100640.13;4998769;28;818;-22
2021/04/30 01:37:45;;;;;;;;;;;;;;;27.87;32.64;100642.50;4999230;28;735;-23
2021/04/30 01:40:12;;;;;;;;;;;;;;;28.04;32.94;100638.72;4999220;28;829;-31
2021/04/30 01:42:37;;;;;;;;;;;;;;;28.01;32.62;100641.81;4998818;28;866;-23
2021/04/30 01:45:03;;;;;;;;;;;;;;;27.91;32.63;100640.22;4998415;28;768;-31
2021/04/30 01:47:28;;;;;;;;;;;;;;;28.01;32.74;100637.22;5008696;28;995;-34
2021/04/30 01:49:53;;;;;;;;;;;;;;;28.01;32.72;100628.28;5018409;28;758;-23
2021/04/30 01:52:18;;;;;;;;;;;;;;;27.91;32.39;100626.72;5018147;28;1914;-23
2021/04/30 01:54:50;;;;;;;;;;;;;;;28.01;32.48;100631.81;5018269;28;738;-31
2021/04/30 01:57:15;;;;;;;;;;;;;;;28.03;32.74;100639.75;5018351;28;808;-23
2021/04/30 01:59:41;;;;;;;;;;;;;;;27.92;32.41;100638.38;5018069;28;788;-33
2021/04/30 02:02:06;;;;;;;;;;;;;;;27.97;32.80;100634.09;5017866;28;959;-22
2021/04/30 02:04:33;;;;;;;;;;;;;;;28.02;32.88;100625.38;5018054;28;963;-33
2021/04/30 02:06:58;;;;;;;;;;;;;;;28.01;32.30;100625.59;5017885;28;741;-23
2021/04/30 02:09:23;;;;;;;;;;;;;;;27.99;32.92;100625.78;5018119;28;851;-29
2021/04/30 02:11:49;;;;;;;;;;;;;;;28.06;32.61;100621.25;5017550;28;1902;-22
2021/04/30 02:14:14;;;;;;;;;;;;;;;27.94;32.57;100623.66;5018128;28;743;-23
2021/04/30 02:16:39;;;;;;;;;;;;;;;27.99;32.54;100621.19;5017305;28;971;-34
2021/04/30 02:19:04;;;;;;;;;;;;;;;28.01;32.71;100612.88;5017779;28;760;-23
2021/04/30 02:21:30;;;;;;;;;;;;;;;28.02;32.32;100617.28;5017789;28;902;-22
2021/04/30 02:23:56;;;;;;;;;;;;;;;27.98;32.31;100614.13;5017503;28;858;-22
2021/04/30 02:26:24;;;;;;;;;;;;;;;28.09;32.29;100618.16;5017220;28;1134;-28
2021/04/30 02:28:50;;;;;;;;;;;;;;;27.97;32.11;100615.16;5017722;28;897;-23
2021/04/30 02:31:15;;;;;;;;;;;;;;;27.99;32.39;100614.97;5017485;28;1886;-23
2021/04/30 02:33:43;;;;;;;;;;;;;;;27.98;32.68;100619.53;5009104;28;996;-29
2021/04/30 02:36:09;;;;;;;;;;;;;;;27.98;32.32;100621.38;4998075;28;741;-23
2021/04/30 02:38:34;;;;;;;;;;;;;;;27.90;32.48;100627.75;4997982;28;859;-33
2021/04/30 02:40:59;;;;;;;;;;;;;;;27.99;32.25;100626.59;4997751;28;798;-23
2021/04/30 02:43:25;;;;;;;;;;;;;;;27.95;32.57;100629.88;4997818;28;883;-23
2021/04/30 02:45:53;;;;;;;;;;;;;;;27.93;32.53;100634.63;4998113;28;755;-23
2021/04/30 02:48:26;;;;;;;;;;;;;;;27.99;32.54;100636.59;5014467;28;992;-23
2021/04/30 02:50:51;;;;;;;;;;;;;;;27.95;32.46;100630.72;5017329;28;1165;-34
2021/04/30 02:53:16;;;;;;;;;;;;;;;27.93;32.64;100621.13;5017030;28;1906;-33
2021/04/30 02:55:41;;;;;;;;;;;;;;;28.05;32.18;100627.72;5017093;28;843;-34
2021/04/30 02:58:07;;;;;;;;;;;;;;;27.89;32.03;100627.94;5017045;28;828;-24
2021/04/30 03:00:32;;;;;;;;;;;;;;;27.98;32.45;100632.19;5017201;28;749;-34
2021/04/30 03:02:57;;;;;;;;;;;;;;;28.00;32.20;100638.25;5016791;28;1029;-23
2021/04/30 03:05:23;;;;;;;;;;;;;;;27.91;32.65;100640.22;5017163;28;748;-24
2021/04/30 03:07:48;;;;;;;;;;;;;;;27.92;32.03;100641.06;5017084;28;1017;-22
2021/04/30 03:10:13;;;;;;;;;;;;;;;27.99;32.25;100652.81;5017067;28;808;-33
2021/04/30 03:12:39;;;;;;;;;;;;;;;28.02;32.37;100646.19;5016942;28;1909;-21
2021/04/30 03:15:04;;;;;;;;;;;;;;;27.96;32.70;100653.19;5016721;28;797;-34
2021/04/30 03:17:30;;;;;;;;;;;;;;;26.84;27.38;100651.25;5016260;28;960;-34
2021/04/30 03:19:55;;;;;;;;;;;;;;;25.89;28.44;100654.97;5017065;28;787;-33
2021/04/30 03:22:21;;;;;;;;;;;;;;;25.49;29.28;100653.06;5016899;28;760;-34
2021/04/30 03:24:46;;;;;;;;;;;;;;;25.22;30.06;100657.06;5016697;28;1594;-22
2021/04/30 03:27:11;;;;;;;;;;;;;;;25.24;30.06;100655.03;5017083;28;831;-34
2021/04/30 03:29:37;;;;;;;;;;;;;;;24.97;29.78;100647.19;5016844;28;771;-27
2021/04/30 03:32:02;;;;;;;;;;;;;;;24.87;30.03;100650.03;5016473;28;1971;-34
2021/04/30 03:34:27;;;;;;;;;;;;;;;24.81;29.91;100650.69;5017045;28;1294;-34
2021/04/30 03:36:52;;;;;;;;;;;;;;;24.66;30.30;100650.53;4997125;28;795;-25
2021/04/30 03:39:18;;;;;;;;;;;;;;;24.57;30.41;100658.59;4997308;28;803;-34
2021/04/30 03:41:43;;;;;;;;;;;;;;;24.51;30.22;100670.03;4997318;28;811;-21
2021/04/30 03:44:08;;;;;;;;;;;;;;;24.20;31.00;100668.84;4997265;28;791;-34
2021/04/30 03:46:34;;;;;;;;;;;;;;;23.72;31.60;100669.31;4999694;28;955;-22
2021/04/30 03:48:59;;;;;;;;;;;;;;;23.75;32.23;100668.19;5015589;28;1300;-36
2021/04/30 03:51:24;;;;;;;;;;;;;;;23.68;32.79;100662.63;5016163;28;1977;-22
2021/04/30 03:53:49;;;;;;;;;;;;;;;23.47;33.62;100663.84;5016928;28;812;-22
2021/04/30 03:56:15;;;;;;;;;;;;;;;23.75;33.16;100670.88;5016449;28;846;-34
2021/04/30 03:58:40;;;;;;;;;;;;;;;23.66;33.64;100664.63;5016200;28;804;-37
2021/04/30 04:01:06;;;;;;;;;;;;;;;24.22;33.32;100671.38;5016391;28;855;-22
2021/04/30 04:03:32;;;;;;;;;;;;;;;24.29;33.41;100668.84;5015790;28;996;-33
2021/04/30 04:05:57;;;;;;;;;;;;;;;24.32;33.17;100680.09;5016380;28;780;-34
2021/04/30 04:08:23;;;;;;;;;;;;;;;24.02;33.17;100692.28;5018022;28;811;-26
2021/04/30 04:10:48;;;;;;;;;;;;;;;24.40;32.68;100691.88;5020382;28;835;-22
2021/04/30 04:13:17;;;;;;;;;;;;;;;24.49;32.68;100687.34;5019594;28;1955;-22
2021/04/30 04:15:45;;;;;;;;;;;;;;;24.65;33.32;100687.38;5020396;28;792;-22
2021/04/30 04:18:10;;;;;;;;;;;;;;;25.03;33.25;100696.78;5019684;28;877;-22
2021/04/30 04:20:35;;;;;;;;;;;;;;;25.07;33.28;100693.56;5020152;28;807;-22
2021/04/30 04:23:01;;;;;;;;;;;;;;;25.09;33.05;100696.09;5019745;28;791;-32
2021/04/30 04:25:26;;;;;;;;;;;;;;;25.41;32.81;100705.13;5019789;28;1286;-23
2021/04/30 04:27:52;;;;;;;;;;;;;;;25.31;34.29;100708.00;5019986;28;739;-32
2021/04/30 04:30:17;;;;;;;;;;;;;;;25.39;32.90;100709.00;5019945;28;808;-26
2021/04/30 04:32:42;;;;;;;;;;;;;;;25.49;32.97;100719.59;5008433;28;1906;-36
2021/04/30 04:35:08;;;;;;;;;;;;;;;25.70;32.49;100724.44;5019792;28;807;-39
2021/04/30 04:37:33;;;;;;;;;;;;;;;25.54;32.16;100714.53;5019735;28;816;-24
2021/04/30 04:39:58;;;;;;;;;;;;;;;25.67;32.43;100714.00;5019484;28;814;-22
2021/04/30 04:42:23;;;;;;;;;;;;;;;25.77;32.40;100717.34;5019849;28;723;-22
2021/04/30 04:44:49;;;;;;;;;;;;;;;25.78;32.11;100723.53;5019617;28;838;-35
2021/04/30 04:47:14;;;;;;;;;;;;;;;25.74;32.31;100724.94;5017974;28;995;-23
2021/04/30 04:49:39;;;;;;;;;;;;;;;25.74;32.54;100727.63;5019767;28;822;-22
2021/04/30 04:52:05;;;;;;;;;;;;;;;25.27;32.87;100724.69;5019478;28;1894;-22
2021/04/30 04:54:31;;;;;;;;;;;;;;;24.99;33.13;100728.56;5019103;28;828;-35
2021/04/30 04:56:57;;;;;;;;;;;;;;;25.16;33.05;100723.16;5019398;28;788;-24
2021/04/30 04:59:22;;;;;;;;;;;;;;;25.18;33.05;100705.84;5019761;28;767;-34
2021/04/30 05:01:47;;;;;;;;;;;;;;;25.15;33.27;100705.34;5018420;28;956;-22
2021/04/30 05:04:13;;;;;;;;;;;;;;;25.05;33.26;100701.00;5018943;28;835;-22
2021/04/30 05:06:38;;;;;;;;;;;;;;;24.99;33.39;100709.72;5018938;28;851;-26
2021/04/30 05:09:03;;;;;;;;;;;;;;;24.96;33.28;100709.25;5018993;28;766;-23
2021/04/30 05:11:29;;;;;;;;;;;;;;;24.85;33.41;100716.63;5016477;28;1894;-28
2021/04/30 05:13:54;;;;;;;;;;;;;;;24.79;33.47;100717.31;5018249;28;763;-28
2021/04/30 05:16:19;;;;;;;;;;;;;;;24.86;33.47;100712.91;5018159;28;889;-34
2021/04/30 05:18:45;;;;;;;;;;;;;;;24.64;33.61;100706.38;5017938;28;936;-23
2021/04/30 05:21:11;;;;;;;;;;;;;;;24.82;33.54;100706.19;5017851;28;803;-32
2021/04/30 05:23:37;;;;;;;;;;;;;;;24.98;33.56;100702.69;5018771;28;825;-23
2021/04/30 05:26:02;;;;;;;;;;;;;;;24.93;33.29;100707.72;5018356;28;1158;-33
2021/04/30 05:28:27;;;;;;;;;;;;;;;24.97;33.53;100709.09;5018408;28;927;-35
2021/04/30 05:30:53;;;;;;;;;;;;;;;25.23;33.33;100713.41;5018690;28;788;-20
2021/04/30 05:33:18;;;;;;;;;;;;;;;25.37;33.19;100713.72;5012247;28;1910;-24
2021/04/30 05:35:43;;;;;;;;;;;;;;;25.51;32.87;100713.00;4999061;28;743;-23
2021/04/30 05:38:09;;;;;;;;;;;;;;;25.52;32.69;100727.31;4999322;28;760;-26
2021/04/30 05:40:34;;;;;;;;;;;;;;;25.58;33.20;100720.38;4998727;28;827;-23
2021/04/30 05:43:00;;;;;;;;;;;;;;;25.63;32.87;100724.28;4998767;28;842;-35
2021/04/30 05:45:25;;;;;;;;;;;;;;;25.79;32.62;100725.25;5000781;28;844;-33
2021/04/30 05:47:51;;;;;;;;;;;;;;;25.67;32.68;100719.38;5011714;28;920;-28
2021/04/30 05:50:16;;;;;;;;;;;;;;;25.67;32.71;100708.63;5018144;28;821;-22
2021/04/30 05:52:41;;;;;;;;;;;;;;;25.67;32.75;100717.50;5018392;28;1961;-35
2021/04/30 05:55:07;;;;;;;;;;;;;;;25.55;32.87;100719.75;5017831;28;753;-32
2021/04/30 05:57:32;;;;;;;;;;;;;;;25.67;33.08;100717.50;5002280;28;818;-22
2021/04/30 05:59:57;;;;;;;;;;;;;;;25.78;32.70;100720.84;4998703;28;800;-33
2021/04/30 06:02:23;;;;;;;;;;;;;;;25.81;32.57;100712.41;5006827;28;1101;-22
2021/04/30 06:04:48;;;;;;;;;;;;;;;25.65;33.08;100718.72;5018150;28;756;-22
2021/04/30 06:07:13;;;;;;;;;;;;;;;25.66;33.26;100721.25;5018008;28;847;-22
2021/04/30 06:09:39;;;;;;;;;;;;;;;25.79;33.07;100727.94;5017755;28;741;-22
2021/04/30 06:12:04;;;;;;;;;;;;;;;25.83;32.88;100731.94;5017720;28;1906;-22
2021/04/30 06:14:30;;;;;;;;;;;;;;;25.74;32.72;100727.63;5017853;28;776;-22
2021/04/30 06:17:01;;;;;;;;;;;;;;;25.68;33.21;100732.69;5014345;28;826;-36
2021/04/30 06:19:27;;;;;;;;;;;;;;;25.76;33.07;100733.66;5017417;28;768;-34
2021/04/30 06:21:52;;;;;;;;;;;;;;;25.88;32.68;100734.97;5017504;28;815;-23
2021/04/30 06:24:18;;;;;;;;;;;;;;;26.00;32.44;100734.56;5018085;28;743;-35
2021/04/30 06:26:43;;;;;;;;;;;;;;;25.98;32.74;100740.13;5017205;28;1412;-33
2021/04/30 06:29:08;;;;;;;;;;;;;;;26.02;32.44;100744.19;5017233;28;793;-22
2021/04/30 06:31:34;;;;;;;;;;;;;;;26.12;32.34;100745.81;5016579;28;1914;-27
2021/04/30 06:34:00;;;;;;;;;;;;;;;26.08;32.43;100741.78;5006590;28;1028;-32
2021/04/30 06:36:25;;;;;;;;;;;;;;;26.07;32.35;100753.59;4997830;28;828;-35
2021/04/30 06:38:50;;;;;;;;;;;;;;;25.97;32.76;100760.03;4997466;28;791;-35
2021/04/30 06:41:16;;;;;;;;;;;;;;;25.93;32.93;100756.00;4997796;28;811;-34
2021/04/30 06:43:41;;;;;;;;;;;;;;;26.02;32.65;100765.75;4997678;28;831;-36
2021/04/30 06:46:06;;;;;;;;;;;;;;;26.11;32.64;100773.78;4997345;28;803;-25
2021/04/30 06:48:31;;;;;;;;;;;;;;;26.09;32.62;100767.72;5016004;28;948;-28
2021/04/30 06:50:57;;;;;;;;;;;;;;;26.21;32.36;100771.69;5017376;28;769;-21
2021/04/30 06:53:22;;;;;;;;;;;;;;;26.25;32.24;100769.50;5016973;28;1902;-33
2021/04/30 06:55:47;;;;;;;;;;;;;;;26.28;32.43;100772.69;5017041;28;805;-36
2021/04/30 06:58:13;;;;;;;;;;;;;;;26.22;32.47;100786.88;5017090;28;831;-22
2021/04/30 07:00:38;;;;;;;;;;;;;;;26.17;32.68;100779.28;5011402;28;845;-22
2021/04/30 07:03:03;;;;;;;;;;;;;;;26.21;32.80;100784.38;5011624;28;904;-23
2021/04/30 07:05:29;;;;;;;;;;;;;;;26.10;33.12;100772.09;5016806;28;879;-37
2021/04/30 07:07:57;;;;;;;;;;;;;;;26.19;32.55;100773.75;5015018;28;1307;-22
2021/04/30 07:10:23;;;;;;;;;;;;;;;26.17;32.56;100784.69;5016291;28;832;-35
2021/04/30 07:12:49;;;;;;;;;;;;;;;26.16;33.03;100779.47;5016471;28;1901;-22
2021/04/30 07:15:15;;;;;;;;;;;;;;;26.20;32.62;100780.81;5016760;28;760;-34
2021/04/30 07:17:40;;;;;;;;;;;;;;;26.29;32.55;100771.66;5016166;28;1011;-27
2021/04/30 07:20:07;;;;;;;;;;;;;;;26.27;32.42;100778.25;5016889;28;851;-31
2021/04/30 07:22:32;;;;;;;;;;;;;;;26.29;32.76;100787.84;5016082;28;791;-31
2021/04/30 07:24:57;;;;;;;;;;;;;;;26.22;32.77;100786.88;5016139;28;1157;-22
2021/04/30 07:27:23;;;;;;;;;;;;;;;26.24;32.73;100781.31;5016772;28;816;-22
2021/04/30 07:29:48;;;;;;;;;;;;;;;26.28;32.82;100778.06;5015983;28;836;-38
2021/04/30 07:32:13;;;;;;;;;;;;;;;26.34;32.42;100784.63;5014957;28;1968;-27
2021/04/30 07:34:39;;;;;;;;;;;;;;;26.48;32.56;100776.81;5013083;28;1168;-35
2021/04/30 07:37:04;;;;;;;;;;;;;;;26.47;32.55;100784.09;5016311;28;895;-32
2021/04/30 07:39:30;;;;;;;;;;;;;;;26.54;32.48;100778.81;5016483;28;829;-25
2021/04/30 07:41:55;;;;;;;;;;;;;;;26.62;32.14;100775.22;5016725;28;787;-23
2021/04/30 07:44:20;;;;;;;;;;;;;;;26.63;32.34;100766.94;5019779;28;818;-21
2021/04/30 07:46:45;;;;;;;;;;;;;;;26.58;32.21;100765.78;5019622;28;995;-21
2021/04/30 07:49:11;;;;;;;;;;;;;;;26.58;32.41;100769.34;5020620;28;783;-28
2021/04/30 07:51:38;;;;;;;;;;;;;;;26.56;32.29;100757.88;5020296;28;1898;-34
2021/04/30 07:54:03;;;;;;;;;;;;;;;26.52;32.31;100760.13;5019977;28;879;-22
2021/04/30 07:56:29;;;;;;;;;;;;;;;26.62;32.43;100756.31;5020667;28;721;-22
2021/04/30 07:58:54;;;;;;;;;;;;;;;26.61;32.53;100760.88;5019860;28;906;-22
2021/04/30 08:01:19;;;;;;;;;;;;;;;26.56;32.43;100763.25;5019548;28;900;-32
2021/04/30 08:03:46;;;;;;;;;;;;;;;26.52;32.37;100773.59;5020151;28;932;-28
2021/04/30 08:06:11;;;;;;;;;;;;;;;26.56;32.61;100757.88;5020037;28;864;-31
2021/04/30 08:08:37;;;;;;;;;;;;;;;26.52;32.60;100757.41;5020090;28;746;-29
2021/04/30 08:11:06;;;;;;;;;;;;;;;26.50;32.71;100745.97;5019789;28;831;-25
2021/04/30 08:13:31;;;;;;;;;;;;;;;26.54;32.82;100749.16;5019853;28;1957;-33
2021/04/30 08:15:57;;;;;;;;;;;;;;;26.61;32.57;100744.69;5019742;28;865;-33
2021/04/30 08:18:22;;;;;;;;;;;;;;;26.55;32.42;100736.47;5019399;28;1023;-34
2021/04/30 08:20:47;;;;;;;;;;;;;;;26.64;32.22;100743.50;5019836;28;808;-34
2021/04/30 08:23:13;;;;;;;;;;;;;;;26.69;32.17;100740.25;5019521;28;740;-22
2021/04/30 08:25:39;;;;;;;;;;;;;;;26.68;32.33;100728.63;5019462;28;1170;-22
2021/04/30 08:28:04;;;;;;;;;;;;;;;26.69;32.36;100732.16;5019054;28;863;-35
2021/04/30 08:30:29;;;;;;;;;;;;;;;26.71;32.36;100733.66;5019487;28;866;-21
2021/04/30 08:32:55;;;;;;;;;;;;;;;26.46;32.62;100733.00;5016825;28;1969;-22
2021/04/30 08:35:21;;;;;;;;;;;;;;;26.47;32.75;100732.84;5000262;28;736;-22
2021/04/30 08:37:47;;;;;;;;;;;;;;;26.52;32.49;100734.97;4999083;28;874;-26
2021/04/30 08:40:12;;;;;;;;;;;;;;;26.36;32.84;100730.56;4999477;28;808;-24
2021/04/30 08:42:37;;;;;;;;;;;;;;;26.44;32.59;100718.84;5012263;28;931;-24
2021/04/30 08:45:06;;;;;;;;;;;;;;;26.55;32.31;100721.13;5018688;28;815;-23
2021/04/30 08:47:32;;;;;;;;;;;;;;;26.63;32.59;100715.69;5018240;28;900;-33
2021/04/30 08:49:57;;;;;;;;;;;;;;;26.73;32.19;100722.69;5033079;28;1128;-36
2021/04/30 08:52:22;;;;;;;;;;;;;;;26.61;32.40;100722.28;5019527;28;1974;-35
2021/04/30 08:54:50;;;;;;;;;;;;;;;26.59;32.53;100718.94;5017768;28;786;-22
2021/04/30 08:57:20;;;;;;;;;;;;;;;26.56;32.69;100714.72;5019584;28;850;-31
2021/04/30 08:59:45;;;;;;;;;;;;;;;26.59;32.18;100716.22;5018443;28;835;-37
2021/04/30 09:02:10;;;;;;;;;;;;;;;26.70;32.14;100723.03;5015978;28;1057;-22
2021/04/30 09:04:36;;;;;;;;;;;;;;;26.64;32.39;100716.53;5019171;28;808;-33
2021/04/30 09:07:31;;;;;;;;;;;;;;;26.62;32.50;100716.72;5019240;28;772;-30
2021/04/30 09:10:00;;;;;;;;;;;;;;;26.67;32.46;100720.72;5013589;28;1138;-34
2021/04/30 09:12:25;;;;;;;;;;;;;;;26.61;32.71;100722.28;5018803;28;1902;-22
2021/04/30 09:14:51;;;;;;;;;;;;;;;26.39;32.95;100722.09;5033691;28;1253;-35
2021/04/30 09:17:17;;;;;;;;;;;;;;;26.18;33.14;100728.91;5018780;28;1011;-22
2021/04/30 09:19:48;;;;;;;;;;;;;;;26.40;32.67;100721.91;5018977;28;783;-22
2021/04/30 09:22:18;;;;;;;;;;;;;;;26.53;32.46;100717.78;5018688;28;780;-27
2021/04/30 09:24:45;;;;;;;;;;;;;;;26.51;32.51;100715.25;5018623;28;1078;-35
2021/04/30 09:27:11;;;;;;;;;;;;;;;26.47;33.46;100715.81;5019079;28;808;-29
2021/04/30 09:29:37;;;;;;;;;;;;;;;26.47;33.54;100713.09;5018882;28;740;-22
2021/04/30 09:32:03;;;;;;;;;;;;;;;26.39;33.62;100711.31;5017955;28;1955;-22
2021/04/30 09:34:28;;;;;;;;;;;;;;;26.46;33.59;100701.47;5004099;28;1270;-21
2021/04/30 09:36:57;;;;;;;;;;;;;;;26.51;33.02;100703.63;4998828;28;828;-22
2021/04/30 09:39:23;;;;;;;;;;;;;;;26.57;32.96;100691.28;4998948;28;796;-31
2021/04/30 09:42:06;;;;;;;;;;;;;;;26.58;32.78;100695.63;4998212;28;877;-35
2021/04/30 09:44:32;;;;;;;;;;;;;;;26.54;33.12;100692.50;4998740;28;725;-36
2021/04/30 09:47:01;;;;;;;;;;;;;;;26.53;33.03;100696.19;5004592;28;948;-34
2021/04/30 09:49:26;;;;;;;;;;;;;;;26.61;32.87;100689.91;5016776;28;1240;-36
2021/04/30 09:51:52;;;;;;;;;;;;;;;26.71;32.78;100695.06;5016348;28;1898;-33
2021/04/30 09:54:20;;;;;;;;;;;;;;;26.71;32.90;100695.06;5017888;28;848;-37
2021/04/30 09:56:46;;;;;;;;;;;;;;;26.80;32.57;100703.91;5018265;28;832;-34
2021/04/30 09:59:14;;;;;;;;;;;;;;;26.67;32.72;100691.88;5017885;28;796;-35
2021/04/30 10:01:39;;;;;;;;;;;;;;;26.69;32.82;100692.53;5015152;28;953;-21
2021/04/30 10:04:04;;;;;;;;;;;;;;;26.65;33.16;100693.91;5018125;28;772;-22
2021/04/30 10:06:31;;;;;;;;;;;;;;;26.69;32.90;100689.84;5017687;28;823;-35
2021/04/30 10:09:03;;;;;;;;;;;;;;;26.67;32.98;100674.84;5017773;28;871;-22
2021/04/30 10:11:33;;;;;;;;;;;;;;;26.71;32.59;100686.97;5017674;28;1949;-23
2021/04/30 10:13:59;;;;;;;;;;;;;;;26.71;32.82;100678.88;5017824;28;749;-22
2021/04/30 10:16:24;;;;;;;;;;;;;;;26.70;32.53;100682.56;5017489;28;992;-22
2021/04/30 10:18:49;;;;;;;;;;;;;;;26.82;32.40;100694.63;5018042;28;766;-22
2021/04/30 10:21:15;;;;;;;;;;;;;;;26.77;32.67;100691.63;5017749;28;783;-22
2021/04/30 10:23:42;;;;;;;;;;;;;;;26.66;32.66;100695.56;5017519;28;715;-25
2021/04/30 10:26:07;;;;;;;;;;;;;;;26.62;32.32;100697.81;5032494;28;1325;-22
2021/04/30 10:28:32;;;;;;;;;;;;;;;26.62;32.71;100694.28;5017735;28;800;-34
2021/04/30 10:30:59;;;;;;;;;;;;;;;26.60;32.48;100678.28;5018246;28;815;-21
2021/04/30 10:33:27;;;;;;;;;;;;;;;26.75;32.59;100685.56;5025858;28;2013;-22
2021/04/30 10:35:59;;;;;;;;;;;;;;;26.71;32.71;100682.38;5012711;28;836;-33
2021/04/30 10:38:25;;;;;;;;;;;;;;;26.80;32.44;100682.31;4997954;28;884;-22
2021/04/30 10:41:00;;;;;;;;;;;;;;;26.84;32.35;100679.06;5012847;28;820;-22
2021/04/30 10:43:25;;;;;;;;;;;;;;;26.88;32.37;100683.09;4997689;28;1404;-21
2021/04/30 10:46:03;;;;;;;;;;;;;;;26.92;32.12;100686.25;4997713;28;783;-21
2021/04/30 10:48:30;;;;;;;;;;;;;;;26.94;32.26;100681.53;5015954;28;967;-21
2021/04/30 10:51:06;;;;;;;;;;;;;;;26.88;31.98;100685.78;5015771;28;1351;-35
2021/04/30 10:53:31;;;;;;;;;;;;;;;26.83;32.45;100679.25;5016879;28;1906;-35
2021/04/30 10:55:57;;;;;;;;;;;;;;;26.92;32.03;100674.63;5017322;28;915;-35
2021/04/30 10:58:35;;;;;;;;;;;;;;;26.90;32.28;100672.09;5017221;28;859;-36
2021/04/30 11:01:19;;;;;;;;;;;;;;;26.92;32.27;100667.38;5016997;28;776;-35
2021/04/30 11:03:53;;;;;;;;;;;;;;;26.84;32.47;100670.16;5016556;28;893;-22
2021/04/30 11:06:19;;;;;;;;;;;;;;;26.87;32.13;100669.78;5031935;28;1304;-22
2021/04/30 11:08:45;;;;;;;;;;;;;;;26.87;32.35;100675.19;5017054;28;740;-22
2021/04/30 11:11:10;;;;;;;;;;;;;;;26.92;31.89;100669.22;5017235;28;827;-22
2021/04/30 11:13:35;;;;;;;;;;;;;;;26.94;32.33;100665.31;5016827;28;1977;-36
2021/04/30 11:16:01;;;;;;;;;;;;;;;26.92;32.33;100664.66;5015145;28;848;-35
2021/04/30 11:18:27;;;;;;;;;;;;;;;26.87;32.41;100672.47;5015884;28;1002;-35
2021/04/30 11:20:57;;;;;;;;;;;;;;;26.86;32.50;100673.50;5016823;28;859;-33
2021/04/30 11:23:22;;;;;;;;;;;;;;;26.84;32.66;100665.56;5016748;28;799;-35
2021/04/30 11:28:22;;;;;;;;;;;;;;;26.86;32.32;100666.22;5017097;28;677;-36
2021/04/30 11:31:03;;;;;;;;;;;;;;;26.87;32.44;100659.81;5016994;28;780;-35
2021/04/30 11:33:29;;;;;;;;;;;;;;;26.82;32.42;100658.69;5009629;28;2013;-22
2021/04/30 11:35:54;;;;;;;;;;;;;;;26.83;32.52;100646.84;4997061;28;820;-22
2021/04/30 11:38:19;;;;;;;;;;;;;;;26.89;32.48;100660.47;5012698;28;772;-21
2021/04/30 11:40:57;;;;;;;;;;;;;;;26.81;32.42;100649.75;4997441;28;816;-35
2021/04/30 11:43:22;;;;;;;;;;;;;;;26.90;32.45;100650.50;4996849;28;826;-35
2021/04/30 11:45:51;;;;;;;;;;;;;;;26.91;32.38;100641.38;4997273;28;806;-22
2021/04/30 11:48:16;;;;;;;;;;;;;;;26.90;32.59;100635.16;5013522;28;923;-33
2021/04/30 11:50:41;;;;;;;;;;;;;;;26.90;32.64;100637.88;5015387;28;1121;-35
2021/04/30 11:53:13;;;;;;;;;;;;;;;26.90;32.61;100631.63;5015347;28;1914;-22
2021/04/30 11:55:39;;;;;;;;;;;;;;;26.89;32.51;100632.66;5016750;28;785;-21
2021/04/30 11:58:05;;;;;;;;;;;;;;;26.92;32.59;100631.44;5016301;28;844;-22
2021/04/30 12:00:31;;;;;;;;;;;;;;;26.92;32.20;100634.13;5016692;28;804;-34
2021/04/30 12:02:59;;;;;;;;;;;;;;;26.92;32.21;100617.94;5015717;28;1502;-33
2021/04/30 12:05:25;;;;;;;;;;;;;;;26.96;32.44;100625.47;5016622;28;765;-34
2021/04/30 12:07:50;;;;;;;;;;;;;;;27.00;32.17;100618.69;5016551;28;768;-22
2021/04/30 12:10:22;;;;;;;;;;;;;;;26.93;32.26;100615.03;5016013;28;1466;-22
2021/04/30 12:12:48;;;;;;;;;;;;;;;26.94;32.47;100613.19;5016624;28;1906;-35
2021/04/30 12:15:18;;;;;;;;;;;;;;;26.92;32.21;100613.38;5016720;28;765;-29
2021/04/30 12:17:45;;;;;;;;;;;;;;;26.94;32.21;100611.34;5015671;28;1022;-22
2021/04/30 12:20:13;;;;;;;;;;;;;;;26.98;32.30;100609.94;5016703;28;805;-22
2021/04/30 12:22:46;;;;;;;;;;;;;;;27.02;32.02;100614.00;5015918;28;1206;-22
2021/04/30 12:25:17;;;;;;;;;;;;;;;26.98;32.16;100603.69;5016083;28;1079;-29
2021/04/30 12:27:43;;;;;;;;;;;;;;;26.90;32.43;100604.63;5016101;28;784;-34
2021/04/30 12:30:08;;;;;;;;;;;;;;;26.87;32.47;100602.31;5018653;28;851;-22
2021/04/30 12:32:33;;;;;;;;;;;;;;;26.94;32.57;100599.69;5019241;28;1914;-24
2021/04/30 12:34:59;;;;;;;;;;;;;;;26.84;32.75;100603.50;5020040;28;1124;-25
2021/04/30 12:37:24;;;;;;;;;;;;;;;26.80;32.56;100595.94;5019640;28;874;-22
2021/04/30 12:39:49;;;;;;;;;;;;;;;26.74;32.76;100595.66;5019321;28;815;-24
2021/04/30 12:42:15;;;;;;;;;;;;;;;26.87;32.59;100586.09;5034893;28;765;-22
2021/04/30 12:44:52;;;;;;;;;;;;;;;26.88;32.35;100594.00;5019565;28;830;-22
2021/04/30 12:47:17;;;;;;;;;;;;;;;26.87;32.61;100583.41;5019478;28;993;-22
2021/04/30 12:49:43;;;;;;;;;;;;;;;26.88;32.67;100585.91;5019580;28;915;-33
2021/04/30 12:52:08;;;;;;;;;;;;;;;26.99;32.22;100578.38;5019466;28;1909;-22